In Rescue
 
Open Full Screen Window  High Contrast Mode
Wind Gusting 00 knots
04
July 25, 2021 9:15 AM EDT
Weather Information
Wind Direction
  290 °
Wind Speed
  04 kt (5 mph)
Wind Gust
  00 kt (0 mph)
Altimeter
29.93 in
Visibility
10 SM
Temperature
24° C
75° F
Dewpoint
21° C
70° F
Humidity
83%
1hr Rain Fall
00.00 in.
24hr Rain Fall
00.00 in.
Sky Condition
Clear
VFR

METAR KFPK 251315Z AUTO 29004KT 10SM CLR 24/21 A2993 RMK AO2 T02370205

FAA Disclaimer: The data displayed is for advisory purposes only and is not to be used for flight planning or operations.